Accueil
METAR-TAF:

METAR-TAF

Aéroports :

Aéroport international Zvartnots

Erevan, Arménie

latitude: 40-08-50N, longitude: 044-23-45E, altitude: 865 m

Observation

Le bulletin a été fait il y a 36 minutes, à 18:30 UTC
Vent 2 kt de nord/nord-est
Température 19°C
Humidité 68%
Pression 1016 hPa
Visibilité 10 km ou plus
Nuages fragmentés à une hauteur de 4300 ft, Cumulonimbus.
orage à proximité

METAR: UDYZ 271830Z 03002KT 9999 VCTS BKN043CB 19/13 Q1016 TEMPO -TSRA

Heure: 23:06 (19:06 UTC)

Prévision

Le bulletin a été fait il y a 2 heures et 6 minutes, à 17:00 UTC
Prévision valable du 27 à 18 UTC au 28 à 18 UTC
Vent 6 kt de nord-est
Visibilité 10 km ou plus
Quelques nuages à une hauteur de 4000 ft
Temporairement
du 27 à 18 UTC au 28 à 06 UTC
Vent 16 kt de direction variable
Nuages fragmentés à une hauteur de 4000 ft, Cumulonimbus.
orage, pluie faible,

TAF: UDYZ 271700Z 2718/2818 05006KT 9999 FEW040 TEMPO 2718/2806 VRB16KT -TSRA BKN040CB

Observations et prévisions météorologiques de plus de 4000 aéroports (messages METAR et TAF).

Les stations disponibles sont représentées par des disques jaunes et rouges sur la carte.

Passer la souris dessus pour voir le nom de la station.

Cliquer dessus pour voir les observations et prévisions météorologiques.

Pour changer de carte: cliquez sur les boutons verts avec une croix noire pour zoomer, sur le bouton vert avec un tiret pour effectuer un zoom arrière, ou sur les flèches vertes pour les cartes adjacentes.


METAR-TAF: